createdAt,value
2022-08-17T02:31:00.039Z,100344.53
2022-08-17T02:33:42.246Z,100351.97
2022-08-17T02:36:40.433Z,100343.16
2022-08-17T02:39:22.386Z,100341.00
2022-08-17T02:42:01.974Z,100342.81
2022-08-17T02:44:39.379Z,100370.94
2022-08-17T02:47:11.721Z,100350.31
2022-08-17T02:49:39.255Z,100337.81
2022-08-17T02:52:08.463Z,100334.31
2022-08-17T02:54:41.458Z,100338.66
2022-08-17T02:57:15.567Z,100333.03
2022-08-17T02:59:49.137Z,100341.19
2022-08-17T03:02:19.563Z,100334.84
2022-08-17T03:04:46.923Z,100363.50
2022-08-17T03:07:17.976Z,100356.28
2022-08-17T03:09:52.136Z,100361.50
2022-08-17T03:12:25.180Z,100347.34
2022-08-17T03:15:30.328Z,100344.53
2022-08-17T03:18:02.532Z,100347.19
2022-08-17T03:20:44.210Z,100337.94
2022-08-17T03:23:25.418Z,100339.75
2022-08-17T03:26:01.455Z,100364.28
2022-08-17T03:28:45.294Z,100363.03
2022-08-17T12:23:47.580Z,100114.63
2022-08-17T16:31:29.253Z,100062.78
2022-08-17T16:34:55.648Z,100068.78
2022-08-17T16:42:31.028Z,100056.22
2022-08-17T16:45:32.544Z,100081.84
2022-08-17T16:52:56.290Z,100064.63
2022-08-17T16:56:45.508Z,100082.03
2022-08-17T17:05:22.032Z,100077.97
2022-08-17T17:18:14.889Z,100108.41
2022-08-17T17:38:20.381Z,100076.50
2022-08-17T17:55:47.199Z,100093.88
2022-08-17T18:00:09.494Z,100083.84
2022-08-17T18:07:31.720Z,100082.84
2022-08-17T18:11:37.822Z,100080.66
2022-08-17T18:15:59.998Z,100059.31
2022-08-17T18:18:44.151Z,100080.00
2022-08-17T18:21:43.955Z,100059.09
2022-08-17T18:26:12.060Z,100067.59
2022-08-17T18:44:43.669Z,100088.97
2022-08-17T18:48:24.909Z,100080.97
2022-08-17T19:00:20.339Z,100063.78
2022-08-17T19:13:04.790Z,100049.00
2022-08-17T19:16:53.063Z,100049.38
2022-08-17T19:19:49.914Z,100056.25
2022-08-17T19:26:51.025Z,100044.75
2022-08-17T19:29:22.342Z,100069.13
2022-08-17T19:34:46.119Z,100072.09
2022-08-17T19:37:24.861Z,100084.25
2022-08-17T19:40:41.803Z,100053.91
2022-08-17T19:43:35.088Z,100079.53
2022-08-17T19:46:29.742Z,100073.50
2022-08-17T19:49:06.473Z,100071.81
2022-08-17T19:51:58.237Z,100068.75
2022-08-17T19:54:40.032Z,100058.63
2022-08-17T19:57:17.668Z,100057.91
2022-08-17T20:03:16.753Z,100072.44
2022-08-17T20:06:11.464Z,100081.97
2022-08-17T20:08:50.817Z,100093.25
2022-08-17T20:11:41.937Z,100091.09
2022-08-17T20:14:26.647Z,100080.00
2022-08-17T20:16:58.187Z,100076.66
2022-08-17T20:19:59.911Z,100093.00
2022-08-17T20:22:49.576Z,100103.41
2022-08-17T20:25:39.798Z,100069.44
2022-08-17T20:28:16.388Z,100061.97
2022-08-17T20:30:46.170Z,100072.41
2022-08-17T20:33:27.846Z,100102.31
2022-08-17T20:36:19.912Z,100102.69
2022-08-17T20:39:01.206Z,100074.50
2022-08-17T20:41:32.154Z,100079.88
2022-08-17T20:44:04.988Z,100088.28
2022-08-17T20:46:35.463Z,100111.69
2022-08-17T20:49:08.932Z,100113.06
2022-08-17T20:51:39.903Z,100109.44
2022-08-17T20:54:28.288Z,100093.38
2022-08-17T20:56:58.632Z,100105.94
2022-08-17T20:59:26.192Z,100119.88
2022-08-17T21:02:17.679Z,100095.97
2022-08-17T21:04:54.768Z,100119.88
2022-08-17T21:07:42.849Z,100120.88
2022-08-17T21:10:35.897Z,100125.94
2022-08-17T21:13:13.984Z,100118.06
2022-08-17T21:16:03.287Z,100107.22
2022-08-17T21:19:02.719Z,100114.25
2022-08-17T21:21:58.593Z,100117.25
2022-08-17T21:24:46.929Z,100122.94
2022-08-17T21:27:34.164Z,100117.44
2022-08-17T21:30:10.220Z,100110.41
2022-08-17T21:33:25.310Z,100118.78
2022-08-17T21:36:17.509Z,100095.72
2022-08-17T21:38:48.066Z,100129.41
2022-08-17T21:41:27.623Z,100135.47
2022-08-17T21:44:12.705Z,100127.09
2022-08-17T21:46:46.698Z,100099.47
2022-08-17T21:49:18.232Z,100093.66
2022-08-17T21:51:54.130Z,100116.94
2022-08-17T21:54:53.987Z,100130.50
2022-08-17T21:57:28.318Z,100113.09
2022-08-17T21:59:59.606Z,100138.22
2022-08-17T22:02:42.021Z,100100.22
2022-08-17T22:05:13.034Z,100122.84
2022-08-17T22:07:50.934Z,100121.47
2022-08-17T22:10:32.218Z,100139.59
2022-08-17T22:13:29.551Z,100140.25
2022-08-17T22:16:28.629Z,100125.19
2022-08-17T22:18:59.314Z,100117.34
2022-08-17T22:21:27.781Z,100116.50
2022-08-17T22:24:25.201Z,100138.41
2022-08-17T22:27:11.809Z,100130.41
2022-08-17T22:29:54.320Z,100133.91
2022-08-17T22:32:35.653Z,100140.44
2022-08-17T22:35:21.456Z,100137.09
2022-08-17T22:37:49.740Z,100124.97
2022-08-17T22:40:26.420Z,100125.31
2022-08-17T22:42:57.563Z,100115.94
2022-08-17T22:45:26.164Z,100141.06
2022-08-17T22:47:56.625Z,100131.84
2022-08-17T22:50:28.295Z,100112.25
2022-08-17T22:53:21.544Z,100143.25
2022-08-17T22:56:09.133Z,100112.91
2022-08-17T22:59:14.167Z,100138.00
2022-08-17T23:01:43.580Z,100122.75
2022-08-17T23:04:29.769Z,100127.47
2022-08-17T23:06:57.312Z,100135.84
2022-08-17T23:09:24.677Z,100127.44
2022-08-17T23:13:10.428Z,100149.91
2022-08-17T23:15:41.358Z,100116.03
2022-08-17T23:18:09.058Z,100140.84
2022-08-17T23:20:39.499Z,100157.59
2022-08-17T23:23:09.404Z,100138.34
2022-08-17T23:25:44.732Z,100135.59
2022-08-17T23:28:15.338Z,100132.78
2022-08-17T23:30:45.116Z,100134.47
2022-08-17T23:33:27.818Z,100138.97
2022-08-17T23:35:55.836Z,100138.81
2022-08-17T23:38:27.486Z,100151.69
2022-08-17T23:41:01.040Z,100158.88
2022-08-17T23:43:57.168Z,100168.59
2022-08-17T23:46:25.478Z,100143.41
2022-08-17T23:48:56.126Z,100136.13
2022-08-17T23:51:39.954Z,100154.13
2022-08-17T23:54:13.843Z,100142.19
2022-08-17T23:56:47.569Z,100167.69
2022-08-17T23:59:16.527Z,100143.97
